CheckWX is a tool to help pilots better visualize weather data.  It is not intended as a substitute for an official pre-flight weather briefing.

10:16:39 UTC

KAKR METAR
Akron Fulton International Airport
Akron, Ohio, USA
Current

23 mins ago

KAKR 160954Z AUTO 20003KT 10SM CLR 23/21 A3007 RMK AO2 SLP170 T02330206
Observed
Jul-16 @ 09:54 UTC
Wind
  • 200° at 3 KTS
Visibility
10 SM
Flight Rules
VFR
Cloud Levels
  • Clear skies
Temperature
23°C / 73°F
Dewpoint
21°C / 70°F
Humidity
89%
Altimeter
30.07" Hg
Pressure
1018.32 hPa
Previous

1 hour ago

KAKR 160854Z AUTO 20005KT 10SM CLR 23/21 A3006 RMK AO2 SLP168 T02330206 58009
Observed
Jul-16 @ 08:54 UTC
Wind
  • 200° at 5 KTS
Visibility
10 SM
Flight Rules
VFR
Cloud Levels
  • Clear skies
Temperature
23°C / 73°F
Dewpoint
21°C / 70°F
Humidity
89%
Altimeter
30.06" Hg
Pressure
1017.92 hPa
Previous

2 hours ago

KAKR 160754Z AUTO 20005KT 10SM CLR 23/21 A3007 RMK AO2 SLP170 T02330206
Observed
Jul-16 @ 07:54 UTC
Wind
  • 200° at 5 KTS
Visibility
10 SM
Flight Rules
VFR
Cloud Levels
  • Clear skies
Temperature
23°C / 73°F
Dewpoint
21°C / 70°F
Humidity
89%
Altimeter
30.07" Hg
Pressure
1018.32 hPa